הכול
Glen Innes Medical Airport YXGE מזג אוויר
There is no TAF data available at YXGE. Showing TAF data for YGLI (5 mi צפ'-מע').
GLI Terminal Area Forecast (no data for YXGE)
| Here is the undecoded forecast: 2026/05/09 18:08 YGLI 091808Z 0920/1008 14005KT CAVOK PROB30 0920/0922 0300 FG RMK T 03 14 19 20 Q 1028 1029 1028 1027 |
There is no METAR data available at YXGE. Showing METAR data for YGLI (5 mi צפ'-מע').
Recent GLI METAR history (no data for YXGE)
| Date | Time (AEST) | Flight Rules | Wind Dir. | Speed | Type | Height AGL (ft) | Visibility | Temp (°C) | Temp (°F) | Dew Point (°C) | Dew Point (°F) | Rel. Humid. | Pressure | Density Altitude | Remarks |
|---|---|---|---|---|---|---|---|---|---|---|---|---|---|---|---|
| 10-מאי | 14:00 | VFR | 150° | 4 kt | 10000 meters | 20° | 68° | 2° | 35° | 30% | 1027 mb | 4,338 ft | |||
| 10-מאי | 13:00 | VFR | 110° | 4 kt | 10000 meters | 20° | 68° | 2° | 35° | 30% | 1028 mb | 4,309 ft | |||
| 10-מאי | 12:00 | VFR | 110° | 5 kt | 10000 meters | 19° | 66° | 2° | 35° | 32% | 1028 mb | 4,189 ft | |||
| 10-מאי | 11:00 | VFR | 320° | 3 kt | 10000 meters | 19° | 66° | 4° | 39° | 37% | 1029 mb | 4,159 ft | |||
| 10-מאי | 10:00 | VFR | 120° | 6 kt | 10000 meters | 17° | 62° | 4° | 39° | 42% | 1029 mb | 3,919 ft | |||
| 10-מאי | 09:00 | VFR | 140° | 3 kt | 10000 meters | 13° | 55° | 7° | 44° | 67% | 1029 mb | 3,439 ft | |||
| 10-מאי | 08:00 | VFR | 110° | 7 kt | 10000 meters | 8° | 46° | 6° | 42° | 87% | 1029 mb | 2,839 ft | |||
| 10-מאי | 07:00 | VFR | 110° | 4 kt | 10000 meters | 2° | 35° | 1° | 33° | 93% | 1028 mb | 2,149 ft | |||
| 10-מאי | 06:00 | VFR | 110° | 7 kt | 10000 meters | 2° | 35° | 1° | 33° | 93% | 1028 mb | 2,149 ft | |||
| 10-מאי | 05:00 | VFR | 130° | 3 kt | 10000 meters | 2° | 35° | 2° | 35° | 100% | 1027 mb | 2,178 ft | |||
| 10-מאי | 04:00 | VFR | 110° | 5 kt | 10000 meters | 2° | 35° | 2° | 35° | 100% | 1027 mb | 2,178 ft | |||
| 10-מאי | 03:00 | VFR | 130° | 4 kt | 10000 meters | 2° | 35° | 2° | 35° | 100% | 1027 mb | 2,178 ft | |||
| 10-מאי | 02:00 | VFR | 100° | 4 kt | 10000 meters | 2° | 35° | 1° | 33° | 93% | 1027 mb | 2,178 ft | |||
| 10-מאי | 01:00 | VFR | 110° | 4 kt | 10000 meters | 2° | 35° | 1° | 33° | 93% | 1027 mb | 2,178 ft | |||
| 10-מאי | 00:00 | VFR | 140° | 3 kt | 10000 meters | 3° | 37° | 2° | 35° | 93% | 1027 mb | 2,298 ft | |||
| 09-מאי | 23:00 | VFR | 120° | 4 kt | 10000 meters | 3° | 37° | 1° | 33° | 87% | 1027 mb | 2,298 ft | |||
| 09-מאי | 22:00 | VFR | 100° | 4 kt | 10000 meters | 4° | 39° | 2° | 35° | 87% | 1027 mb | 2,418 ft | |||
| 09-מאי | 21:00 | VFR | 130° | 5 kt | 10000 meters | 5° | 41° | 2° | 35° | 81% | 1027 mb | 2,538 ft | |||
| 09-מאי | 20:00 | VFR | 150° | 6 kt | 10000 meters | 6° | 42° | 3° | 37° | 81% | 1027 mb | 2,658 ft | |||
| 09-מאי | 19:00 | VFR | 80° | 5 kt | 10000 meters | 9° | 48° | 4° | 39° | 71% | 1026 mb | 3,048 ft | |||
| 09-מאי | 18:00 | VFR | 210° | 5 kt | 10000 meters | 11° | 51° | 3° | 37° | 58% | 1025 mb | 3,318 ft | |||
| 09-מאי | 17:00 | VFR | 110° | 5 kt | 10000 meters | 16° | 60° | 1° | 33° | 36% | 1024 mb | 3,947 ft | |||
| 09-מאי | 16:00 | VFR | 130° | 5 kt | 10000 meters | 19° | 66° | 2° | 35° | 32% | 1024 mb | 4,307 ft | |||
| 09-מאי | 15:00 | VFR | 100° | 4 kt | 10000 meters | 19° | 66° | 2° | 35° | 32% | 1024 mb | 4,307 ft |
כניסה לאתר
| אין תמיכה בדפדפן שלך. שדרג את הדפדפן שלך |
